sensor_id;sensor_type;location;lat;lon;timestamp;P1;durP1;ratioP1;P2;durP2;ratioP2
10315;SDS011;5203;48.976;8.306;2024-03-08T00:00:33;33.13;;;16.52;;
10315;SDS011;5203;48.976;8.306;2024-03-08T00:02:59;33.40;;;16.10;;
10315;SDS011;5203;48.976;8.306;2024-03-08T00:05:26;29.92;;;14.10;;
10315;SDS011;5203;48.976;8.306;2024-03-08T00:07:52;34.78;;;15.82;;
10315;SDS011;5203;48.976;8.306;2024-03-08T00:10:18;37.35;;;16.80;;
10315;SDS011;5203;48.976;8.306;2024-03-08T00:12:45;32.88;;;16.05;;
10315;SDS011;5203;48.976;8.306;2024-03-08T00:15:12;34.88;;;15.45;;
10315;SDS011;5203;48.976;8.306;2024-03-08T00:17:40;34.33;;;15.68;;
10315;SDS011;5203;48.976;8.306;2024-03-08T00:20:06;32.20;;;15.88;;
10315;SDS011;5203;48.976;8.306;2024-03-08T00:22:35;34.47;;;16.50;;
10315;SDS011;5203;48.976;8.306;2024-03-08T00:25:07;32.13;;;18.33;;
10315;SDS011;5203;48.976;8.306;2024-03-08T00:27:42;29.95;;;15.85;;
10315;SDS011;5203;48.976;8.306;2024-03-08T00:30:07;34.13;;;17.15;;
10315;SDS011;5203;48.976;8.306;2024-03-08T00:32:34;38.42;;;16.75;;
10315;SDS011;5203;48.976;8.306;2024-03-08T00:35:01;32.40;;;15.98;;
10315;SDS011;5203;48.976;8.306;2024-03-08T00:37:26;37.65;;;16.08;;
10315;SDS011;5203;48.976;8.306;2024-03-08T00:39:53;35.70;;;16.48;;
10315;SDS011;5203;48.976;8.306;2024-03-08T00:42:34;38.88;;;18.05;;
10315;SDS011;5203;48.976;8.306;2024-03-08T00:45:10;35.78;;;16.83;;
10315;SDS011;5203;48.976;8.306;2024-03-08T00:47:36;33.17;;;16.13;;
10315;SDS011;5203;48.976;8.306;2024-03-08T00:50:02;36.55;;;19.80;;
10315;SDS011;5203;48.976;8.306;2024-03-08T00:52:31;36.70;;;16.25;;
10315;SDS011;5203;48.976;8.306;2024-03-08T00:54:57;41.38;;;20.45;;
10315;SDS011;5203;48.976;8.306;2024-03-08T00:57:22;36.38;;;17.63;;
10315;SDS011;5203;48.976;8.306;2024-03-08T00:59:48;37.50;;;17.20;;
10315;SDS011;5203;48.976;8.306;2024-03-08T01:02:16;33.63;;;15.68;;
10315;SDS011;5203;48.976;8.306;2024-03-08T01:04:47;40.03;;;17.42;;
10315;SDS011;5203;48.976;8.306;2024-03-08T01:07:13;33.25;;;15.90;;
10315;SDS011;5203;48.976;8.306;2024-03-08T01:09:41;35.53;;;17.42;;
10315;SDS011;5203;48.976;8.306;2024-03-08T01:12:10;35.30;;;18.00;;
10315;SDS011;5203;48.976;8.306;2024-03-08T01:14:38;36.47;;;15.00;;
10315;SDS011;5203;48.976;8.306;2024-03-08T01:17:04;40.05;;;19.00;;
10315;SDS011;5203;48.976;8.306;2024-03-08T01:19:30;35.08;;;15.88;;
10315;SDS011;5203;48.976;8.306;2024-03-08T01:21:57;37.00;;;16.30;;
10315;SDS011;5203;48.976;8.306;2024-03-08T01:24:23;38.47;;;16.85;;
10315;SDS011;5203;48.976;8.306;2024-03-08T01:26:48;35.75;;;17.15;;
10315;SDS011;5203;48.976;8.306;2024-03-08T01:29:14;35.65;;;16.38;;
10315;SDS011;5203;48.976;8.306;2024-03-08T01:31:43;37.50;;;16.25;;
10315;SDS011;5203;48.976;8.306;2024-03-08T01:34:09;39.08;;;16.10;;
10315;SDS011;5203;48.976;8.306;2024-03-08T01:36:37;40.80;;;18.17;;
10315;SDS011;5203;48.976;8.306;2024-03-08T01:39:03;36.85;;;18.42;;
10315;SDS011;5203;48.976;8.306;2024-03-08T01:41:38;37.63;;;16.60;;
10315;SDS011;5203;48.976;8.306;2024-03-08T01:44:24;38.22;;;18.10;;
10315;SDS011;5203;48.976;8.306;2024-03-08T01:46:56;35.92;;;16.13;;
10315;SDS011;5203;48.976;8.306;2024-03-08T01:49:28;36.30;;;18.40;;
10315;SDS011;5203;48.976;8.306;2024-03-08T01:51:54;32.95;;;17.33;;
10315;SDS011;5203;48.976;8.306;2024-03-08T01:54:21;46.33;;;19.58;;
10315;SDS011;5203;48.976;8.306;2024-03-08T01:56:54;40.88;;;17.73;;
10315;SDS011;5203;48.976;8.306;2024-03-08T02:02:02;34.88;;;15.35;;
10315;SDS011;5203;48.976;8.306;2024-03-08T02:04:31;32.95;;;15.82;;
10315;SDS011;5203;48.976;8.306;2024-03-08T02:06:59;33.92;;;16.23;;
10315;SDS011;5203;48.976;8.306;2024-03-08T02:09:28;40.15;;;16.17;;
10315;SDS011;5203;48.976;8.306;2024-03-08T02:11:54;39.95;;;16.83;;
10315;SDS011;5203;48.976;8.306;2024-03-08T02:14:21;42.72;;;17.85;;
10315;SDS011;5203;48.976;8.306;2024-03-08T02:16:50;36.25;;;17.10;;
10315;SDS011;5203;48.976;8.306;2024-03-08T02:19:19;37.90;;;17.25;;
10315;SDS011;5203;48.976;8.306;2024-03-08T02:21:45;39.97;;;18.02;;
10315;SDS011;5203;48.976;8.306;2024-03-08T02:24:12;37.50;;;17.77;;
10315;SDS011;5203;48.976;8.306;2024-03-08T02:26:38;39.60;;;18.02;;
10315;SDS011;5203;48.976;8.306;2024-03-08T02:29:07;35.03;;;17.48;;
10315;SDS011;5203;48.976;8.306;2024-03-08T02:31:34;36.90;;;16.70;;
10315;SDS011;5203;48.976;8.306;2024-03-08T02:34:05;37.95;;;19.23;;
10315;SDS011;5203;48.976;8.306;2024-03-08T02:36:31;33.45;;;16.38;;
10315;SDS011;5203;48.976;8.306;2024-03-08T02:39:01;41.28;;;17.92;;
10315;SDS011;5203;48.976;8.306;2024-03-08T02:41:27;35.17;;;15.93;;
10315;SDS011;5203;48.976;8.306;2024-03-08T02:43:53;34.10;;;15.80;;
10315;SDS011;5203;48.976;8.306;2024-03-08T02:46:20;34.67;;;17.40;;
10315;SDS011;5203;48.976;8.306;2024-03-08T02:48:46;39.35;;;18.17;;
10315;SDS011;5203;48.976;8.306;2024-03-08T02:51:17;37.03;;;16.80;;
10315;SDS011;5203;48.976;8.306;2024-03-08T02:53:49;37.35;;;17.17;;
10315;SDS011;5203;48.976;8.306;2024-03-08T02:56:16;38.35;;;17.88;;
10315;SDS011;5203;48.976;8.306;2024-03-08T02:58:43;36.22;;;17.05;;
10315;SDS011;5203;48.976;8.306;2024-03-08T03:01:13;35.88;;;16.42;;
10315;SDS011;5203;48.976;8.306;2024-03-08T03:03:40;34.17;;;16.50;;
10315;SDS011;5203;48.976;8.306;2024-03-08T03:06:07;41.72;;;16.13;;
10315;SDS011;5203;48.976;8.306;2024-03-08T03:08:39;38.15;;;15.82;;
10315;SDS011;5203;48.976;8.306;2024-03-08T03:11:24;36.63;;;16.27;;
10315;SDS011;5203;48.976;8.306;2024-03-08T03:13:50;40.15;;;17.63;;
10315;SDS011;5203;48.976;8.306;2024-03-08T03:16:17;40.55;;;18.85;;
10315;SDS011;5203;48.976;8.306;2024-03-08T03:18:58;39.08;;;16.27;;
10315;SDS011;5203;48.976;8.306;2024-03-08T03:21:28;38.45;;;17.02;;
10315;SDS011;5203;48.976;8.306;2024-03-08T03:24:01;37.17;;;15.75;;
10315;SDS011;5203;48.976;8.306;2024-03-08T03:26:26;39.55;;;18.73;;
10315;SDS011;5203;48.976;8.306;2024-03-08T03:28:52;34.63;;;15.50;;
10315;SDS011;5203;48.976;8.306;2024-03-08T03:31:21;35.97;;;16.13;;
10315;SDS011;5203;48.976;8.306;2024-03-08T03:33:49;37.78;;;16.30;;
10315;SDS011;5203;48.976;8.306;2024-03-08T03:36:16;33.13;;;16.52;;
10315;SDS011;5203;48.976;8.306;2024-03-08T03:38:43;38.05;;;18.20;;
10315;SDS011;5203;48.976;8.306;2024-03-08T03:41:08;36.13;;;16.70;;
10315;SDS011;5203;48.976;8.306;2024-03-08T03:43:40;35.22;;;17.88;;
10315;SDS011;5203;48.976;8.306;2024-03-08T03:46:08;42.40;;;16.60;;
10315;SDS011;5203;48.976;8.306;2024-03-08T03:48:35;36.45;;;18.73;;
10315;SDS011;5203;48.976;8.306;2024-03-08T03:51:01;41.47;;;20.10;;
10315;SDS011;5203;48.976;8.306;2024-03-08T03:53:34;40.17;;;17.30;;
10315;SDS011;5203;48.976;8.306;2024-03-08T03:56:00;37.78;;;18.02;;
10315;SDS011;5203;48.976;8.306;2024-03-08T03:58:32;37.35;;;15.57;;
10315;SDS011;5203;48.976;8.306;2024-03-08T04:01:00;37.28;;;16.17;;
10315;SDS011;5203;48.976;8.306;2024-03-08T04:03:26;40.03;;;17.75;;
10315;SDS011;5203;48.976;8.306;2024-03-08T04:05:51;36.33;;;16.85;;
10315;SDS011;5203;48.976;8.306;2024-03-08T04:08:17;36.85;;;16.58;;
10315;SDS011;5203;48.976;8.306;2024-03-08T04:10:49;43.92;;;18.23;;
10315;SDS011;5203;48.976;8.306;2024-03-08T04:13:24;30.00;;;18.20;;
10315;SDS011;5203;48.976;8.306;2024-03-08T04:15:51;35.80;;;17.20;;
10315;SDS011;5203;48.976;8.306;2024-03-08T04:18:17;39.83;;;17.08;;
10315;SDS011;5203;48.976;8.306;2024-03-08T04:20:46;36.03;;;15.00;;
10315;SDS011;5203;48.976;8.306;2024-03-08T04:23:11;35.30;;;14.52;;
10315;SDS011;5203;48.976;8.306;2024-03-08T04:25:37;40.58;;;16.80;;
10315;SDS011;5203;48.976;8.306;2024-03-08T04:28:03;36.47;;;16.30;;
10315;SDS011;5203;48.976;8.306;2024-03-08T04:30:29;40.53;;;17.00;;
10315;SDS011;5203;48.976;8.306;2024-03-08T04:32:55;38.80;;;17.38;;
10315;SDS011;5203;48.976;8.306;2024-03-08T04:35:21;37.83;;;16.75;;
10315;SDS011;5203;48.976;8.306;2024-03-08T04:37:47;40.88;;;17.52;;
10315;SDS011;5203;48.976;8.306;2024-03-08T04:40:19;37.78;;;16.75;;
10315;SDS011;5203;48.976;8.306;2024-03-08T04:42:47;40.92;;;18.88;;
10315;SDS011;5203;48.976;8.306;2024-03-08T04:45:16;37.17;;;16.70;;
10315;SDS011;5203;48.976;8.306;2024-03-08T04:47:46;38.70;;;17.27;;
10315;SDS011;5203;48.976;8.306;2024-03-08T04:50:12;39.88;;;17.95;;
10315;SDS011;5203;48.976;8.306;2024-03-08T04:55:24;34.05;;;15.20;;
10315;SDS011;5203;48.976;8.306;2024-03-08T04:57:53;34.10;;;15.45;;
10315;SDS011;5203;48.976;8.306;2024-03-08T05:00:24;34.28;;;16.35;;
10315;SDS011;5203;48.976;8.306;2024-03-08T05:02:50;31.67;;;14.93;;
10315;SDS011;5203;48.976;8.306;2024-03-08T05:05:21;33.30;;;15.35;;
10315;SDS011;5203;48.976;8.306;2024-03-08T05:07:47;33.45;;;15.90;;
10315;SDS011;5203;48.976;8.306;2024-03-08T05:10:13;47.55;;;20.27;;
10315;SDS011;5203;48.976;8.306;2024-03-08T05:12:42;41.72;;;17.95;;
10315;SDS011;5203;48.976;8.306;2024-03-08T05:15:08;37.08;;;16.70;;
10315;SDS011;5203;48.976;8.306;2024-03-08T05:17:34;32.38;;;15.32;;
10315;SDS011;5203;48.976;8.306;2024-03-08T05:20:00;35.15;;;18.95;;
10315;SDS011;5203;48.976;8.306;2024-03-08T05:22:26;35.97;;;17.35;;
10315;SDS011;5203;48.976;8.306;2024-03-08T05:24:55;36.20;;;16.73;;
10315;SDS011;5203;48.976;8.306;2024-03-08T05:27:20;38.47;;;16.75;;
10315;SDS011;5203;48.976;8.306;2024-03-08T05:29:49;32.97;;;15.57;;
10315;SDS011;5203;48.976;8.306;2024-03-08T05:32:15;37.97;;;17.75;;
10315;SDS011;5203;48.976;8.306;2024-03-08T05:34:43;35.78;;;16.08;;
10315;SDS011;5203;48.976;8.306;2024-03-08T05:37:09;34.42;;;15.80;;
10315;SDS011;5203;48.976;8.306;2024-03-08T05:39:36;35.85;;;15.48;;
10315;SDS011;5203;48.976;8.306;2024-03-08T05:42:02;40.53;;;17.67;;
10315;SDS011;5203;48.976;8.306;2024-03-08T05:44:27;35.38;;;16.15;;
10315;SDS011;5203;48.976;8.306;2024-03-08T05:46:58;36.13;;;16.63;;
10315;SDS011;5203;48.976;8.306;2024-03-08T05:49:24;39.40;;;16.35;;
10315;SDS011;5203;48.976;8.306;2024-03-08T05:51:50;37.55;;;16.73;;
10315;SDS011;5203;48.976;8.306;2024-03-08T05:54:16;37.10;;;15.30;;
10315;SDS011;5203;48.976;8.306;2024-03-08T05:56:42;35.33;;;15.48;;
10315;SDS011;5203;48.976;8.306;2024-03-08T05:59:09;39.13;;;16.55;;
10315;SDS011;5203;48.976;8.306;2024-03-08T06:01:35;33.45;;;14.80;;
10315;SDS011;5203;48.976;8.306;2024-03-08T06:04:02;37.90;;;15.68;;
10315;SDS011;5203;48.976;8.306;2024-03-08T06:06:29;38.13;;;17.10;;
10315;SDS011;5203;48.976;8.306;2024-03-08T06:08:55;29.33;;;15.25;;
10315;SDS011;5203;48.976;8.306;2024-03-08T06:11:24;34.08;;;15.23;;
10315;SDS011;5203;48.976;8.306;2024-03-08T06:13:55;35.30;;;16.45;;
10315;SDS011;5203;48.976;8.306;2024-03-08T06:16:25;39.80;;;15.95;;
10315;SDS011;5203;48.976;8.306;2024-03-08T06:18:54;33.60;;;15.93;;
10315;SDS011;5203;48.976;8.306;2024-03-08T06:21:23;33.92;;;16.48;;
10315;SDS011;5203;48.976;8.306;2024-03-08T06:23:51;37.67;;;17.50;;
10315;SDS011;5203;48.976;8.306;2024-03-08T06:26:20;36.10;;;15.77;;
10315;SDS011;5203;48.976;8.306;2024-03-08T06:28:47;36.05;;;15.68;;
10315;SDS011;5203;48.976;8.306;2024-03-08T06:31:13;35.58;;;14.93;;
10315;SDS011;5203;48.976;8.306;2024-03-08T06:33:40;35.83;;;16.10;;
10315;SDS011;5203;48.976;8.306;2024-03-08T06:36:05;35.47;;;15.00;;
10315;SDS011;5203;48.976;8.306;2024-03-08T06:38:32;40.30;;;16.38;;
10315;SDS011;5203;48.976;8.306;2024-03-08T06:40:58;35.60;;;17.67;;
10315;SDS011;5203;48.976;8.306;2024-03-08T06:43:23;36.10;;;18.05;;
10315;SDS011;5203;48.976;8.306;2024-03-08T06:45:57;38.05;;;15.93;;
10315;SDS011;5203;48.976;8.306;2024-03-08T06:48:23;34.50;;;16.67;;
10315;SDS011;5203;48.976;8.306;2024-03-08T06:50:49;38.67;;;17.75;;
10315;SDS011;5203;48.976;8.306;2024-03-08T06:53:14;32.15;;;15.48;;
10315;SDS011;5203;48.976;8.306;2024-03-08T06:58:09;35.20;;;16.48;;
10315;SDS011;5203;48.976;8.306;2024-03-08T07:00:36;33.72;;;14.27;;
10315;SDS011;5203;48.976;8.306;2024-03-08T07:03:02;32.05;;;16.88;;
10315;SDS011;5203;48.976;8.306;2024-03-08T07:05:29;37.65;;;17.80;;
10315;SDS011;5203;48.976;8.306;2024-03-08T07:07:55;32.35;;;14.75;;
10315;SDS011;5203;48.976;8.306;2024-03-08T07:10:22;35.30;;;14.73;;
10315;SDS011;5203;48.976;8.306;2024-03-08T07:12:51;36.05;;;17.40;;
10315;SDS011;5203;48.976;8.306;2024-03-08T07:15:18;36.72;;;15.73;;
10315;SDS011;5203;48.976;8.306;2024-03-08T07:17:44;37.47;;;15.90;;
10315;SDS011;5203;48.976;8.306;2024-03-08T07:20:11;36.03;;;16.60;;
10315;SDS011;5203;48.976;8.306;2024-03-08T07:22:44;36.13;;;15.25;;
10315;SDS011;5203;48.976;8.306;2024-03-08T07:25:13;33.97;;;15.65;;
10315;SDS011;5203;48.976;8.306;2024-03-08T07:30:26;36.45;;;15.25;;
10315;SDS011;5203;48.976;8.306;2024-03-08T07:33:10;32.75;;;15.57;;
10315;SDS011;5203;48.976;8.306;2024-03-08T07:35:37;41.22;;;15.80;;
10315;SDS011;5203;48.976;8.306;2024-03-08T07:38:06;39.00;;;16.30;;
10315;SDS011;5203;48.976;8.306;2024-03-08T07:40:42;38.15;;;16.23;;
10315;SDS011;5203;48.976;8.306;2024-03-08T07:43:12;34.60;;;15.90;;
10315;SDS011;5203;48.976;8.306;2024-03-08T07:45:38;36.90;;;15.52;;
10315;SDS011;5203;48.976;8.306;2024-03-08T07:48:04;34.63;;;16.95;;
10315;SDS011;5203;48.976;8.306;2024-03-08T07:50:35;34.65;;;15.50;;
10315;SDS011;5203;48.976;8.306;2024-03-08T07:53:03;35.38;;;17.17;;
10315;SDS011;5203;48.976;8.306;2024-03-08T07:55:31;36.35;;;18.00;;
10315;SDS011;5203;48.976;8.306;2024-03-08T07:57:58;30.48;;;16.77;;
10315;SDS011;5203;48.976;8.306;2024-03-08T08:00:24;33.80;;;16.33;;
10315;SDS011;5203;48.976;8.306;2024-03-08T08:02:52;36.25;;;15.25;;
10315;SDS011;5203;48.976;8.306;2024-03-08T08:05:20;32.28;;;16.50;;
10315;SDS011;5203;48.976;8.306;2024-03-08T08:07:48;37.97;;;16.63;;
10315;SDS011;5203;48.976;8.306;2024-03-08T08:10:15;33.00;;;16.90;;
10315;SDS011;5203;48.976;8.306;2024-03-08T08:12:52;33.55;;;14.55;;
10315;SDS011;5203;48.976;8.306;2024-03-08T08:15:18;35.33;;;14.00;;
10315;SDS011;5203;48.976;8.306;2024-03-08T08:17:44;36.58;;;15.25;;
10315;SDS011;5203;48.976;8.306;2024-03-08T08:20:10;35.30;;;14.93;;
10315;SDS011;5203;48.976;8.306;2024-03-08T08:22:41;31.85;;;14.90;;
10315;SDS011;5203;48.976;8.306;2024-03-08T08:25:10;32.92;;;15.52;;
10315;SDS011;5203;48.976;8.306;2024-03-08T08:27:40;38.42;;;16.70;;
10315;SDS011;5203;48.976;8.306;2024-03-08T08:30:09;35.25;;;15.18;;
10315;SDS011;5203;48.976;8.306;2024-03-08T08:32:36;33.92;;;15.32;;
10315;SDS011;5203;48.976;8.306;2024-03-08T08:35:11;34.58;;;15.02;;
10315;SDS011;5203;48.976;8.306;2024-03-08T08:37:40;30.60;;;15.20;;
10315;SDS011;5203;48.976;8.306;2024-03-08T08:40:06;32.25;;;15.82;;
10315;SDS011;5203;48.976;8.306;2024-03-08T08:42:39;31.00;;;14.73;;
10315;SDS011;5203;48.976;8.306;2024-03-08T08:45:05;32.90;;;14.85;;
10315;SDS011;5203;48.976;8.306;2024-03-08T08:47:35;36.25;;;16.02;;
10315;SDS011;5203;48.976;8.306;2024-03-08T08:50:02;34.85;;;16.63;;
10315;SDS011;5203;48.976;8.306;2024-03-08T08:52:32;36.15;;;16.38;;
10315;SDS011;5203;48.976;8.306;2024-03-08T08:54:58;34.72;;;16.15;;
10315;SDS011;5203;48.976;8.306;2024-03-08T08:57:23;34.95;;;15.18;;
10315;SDS011;5203;48.976;8.306;2024-03-08T08:59:49;36.13;;;18.15;;
10315;SDS011;5203;48.976;8.306;2024-03-08T09:02:15;34.15;;;15.25;;
10315;SDS011;5203;48.976;8.306;2024-03-08T09:04:42;37.75;;;15.15;;
10315;SDS011;5203;48.976;8.306;2024-03-08T09:07:08;31.98;;;12.88;;
10315;SDS011;5203;48.976;8.306;2024-03-08T09:09:36;36.28;;;16.17;;
10315;SDS011;5203;48.976;8.306;2024-03-08T09:12:02;31.63;;;14.93;;
10315;SDS011;5203;48.976;8.306;2024-03-08T09:14:28;32.75;;;14.68;;
10315;SDS011;5203;48.976;8.306;2024-03-08T09:16:54;33.53;;;14.10;;
10315;SDS011;5203;48.976;8.306;2024-03-08T09:19:20;34.72;;;14.60;;
10315;SDS011;5203;48.976;8.306;2024-03-08T09:21:48;30.95;;;13.25;;
10315;SDS011;5203;48.976;8.306;2024-03-08T09:24:14;29.23;;;13.43;;
10315;SDS011;5203;48.976;8.306;2024-03-08T09:26:41;35.63;;;14.85;;
10315;SDS011;5203;48.976;8.306;2024-03-08T09:29:14;28.92;;;12.82;;
10315;SDS011;5203;48.976;8.306;2024-03-08T09:31:40;34.55;;;12.80;;
10315;SDS011;5203;48.976;8.306;2024-03-08T09:34:06;33.58;;;15.35;;
10315;SDS011;5203;48.976;8.306;2024-03-08T09:36:33;33.42;;;13.40;;
10315;SDS011;5203;48.976;8.306;2024-03-08T09:38:59;30.15;;;13.93;;
10315;SDS011;5203;48.976;8.306;2024-03-08T09:41:25;34.15;;;14.65;;
10315;SDS011;5203;48.976;8.306;2024-03-08T09:43:52;31.58;;;13.40;;
10315;SDS011;5203;48.976;8.306;2024-03-08T09:46:33;29.77;;;14.45;;
10315;SDS011;5203;48.976;8.306;2024-03-08T09:48:59;32.45;;;14.90;;
10315;SDS011;5203;48.976;8.306;2024-03-08T09:51:29;31.58;;;13.80;;
10315;SDS011;5203;48.976;8.306;2024-03-08T09:53:57;30.20;;;12.48;;
10315;SDS011;5203;48.976;8.306;2024-03-08T09:56:23;30.92;;;14.32;;
10315;SDS011;5203;48.976;8.306;2024-03-08T09:58:50;30.73;;;15.07;;
10315;SDS011;5203;48.976;8.306;2024-03-08T10:01:33;31.25;;;13.57;;
10315;SDS011;5203;48.976;8.306;2024-03-08T10:03:58;26.67;;;14.00;;
10315;SDS011;5203;48.976;8.306;2024-03-08T10:06:24;29.70;;;15.30;;
10315;SDS011;5203;48.976;8.306;2024-03-08T10:08:50;26.40;;;13.52;;
10315;SDS011;5203;48.976;8.306;2024-03-08T10:11:20;34.05;;;14.75;;
10315;SDS011;5203;48.976;8.306;2024-03-08T10:13:47;28.60;;;14.63;;
10315;SDS011;5203;48.976;8.306;2024-03-08T10:16:15;30.90;;;12.77;;
10315;SDS011;5203;48.976;8.306;2024-03-08T10:18:42;28.73;;;13.40;;
10315;SDS011;5203;48.976;8.306;2024-03-08T10:23:36;27.27;;;11.20;;
10315;SDS011;5203;48.976;8.306;2024-03-08T10:26:09;32.85;;;15.45;;
10315;SDS011;5203;48.976;8.306;2024-03-08T10:28:47;29.85;;;13.20;;
10315;SDS011;5203;48.976;8.306;2024-03-08T10:31:14;27.00;;;12.68;;
10315;SDS011;5203;48.976;8.306;2024-03-08T10:33:44;30.88;;;14.40;;
10315;SDS011;5203;48.976;8.306;2024-03-08T10:36:11;33.58;;;14.20;;
10315;SDS011;5203;48.976;8.306;2024-03-08T10:38:39;29.08;;;13.77;;
10315;SDS011;5203;48.976;8.306;2024-03-08T10:41:10;28.65;;;13.95;;
10315;SDS011;5203;48.976;8.306;2024-03-08T10:43:45;26.85;;;12.55;;
10315;SDS011;5203;48.976;8.306;2024-03-08T10:49:38;32.05;;;15.40;;
10315;SDS011;5203;48.976;8.306;2024-03-08T10:52:13;29.95;;;13.75;;
10315;SDS011;5203;48.976;8.306;2024-03-08T10:54:47;27.73;;;13.15;;
10315;SDS011;5203;48.976;8.306;2024-03-08T10:57:17;26.02;;;13.68;;
10315;SDS011;5203;48.976;8.306;2024-03-08T10:59:45;31.58;;;14.88;;
10315;SDS011;5203;48.976;8.306;2024-03-08T11:02:22;24.73;;;14.07;;
10315;SDS011;5203;48.976;8.306;2024-03-08T11:04:50;29.40;;;14.15;;
10315;SDS011;5203;48.976;8.306;2024-03-08T11:07:18;27.52;;;14.05;;
10315;SDS011;5203;48.976;8.306;2024-03-08T11:09:48;25.50;;;12.23;;
10315;SDS011;5203;48.976;8.306;2024-03-08T11:14:55;30.95;;;14.32;;
10315;SDS011;5203;48.976;8.306;2024-03-08T11:20:04;26.77;;;13.32;;
10315;SDS011;5203;48.976;8.306;2024-03-08T11:28:08;29.75;;;16.30;;
10315;SDS011;5203;48.976;8.306;2024-03-08T11:33:28;24.15;;;13.30;;
10315;SDS011;5203;48.976;8.306;2024-03-08T11:36:12;25.25;;;13.18;;
10315;SDS011;5203;48.976;8.306;2024-03-08T11:38:47;28.08;;;13.10;;
10315;SDS011;5203;48.976;8.306;2024-03-08T11:41:16;35.47;;;13.00;;
10315;SDS011;5203;48.976;8.306;2024-03-08T11:43:44;25.30;;;13.32;;
10315;SDS011;5203;48.976;8.306;2024-03-08T11:46:11;26.92;;;12.93;;
10315;SDS011;5203;48.976;8.306;2024-03-08T11:48:39;23.60;;;12.35;;
10315;SDS011;5203;48.976;8.306;2024-03-08T11:51:07;23.23;;;12.20;;
10315;SDS011;5203;48.976;8.306;2024-03-08T11:53:43;25.25;;;13.45;;
10315;SDS011;5203;48.976;8.306;2024-03-08T11:56:10;23.60;;;12.55;;
10315;SDS011;5203;48.976;8.306;2024-03-08T11:58:38;24.83;;;14.38;;
10315;SDS011;5203;48.976;8.306;2024-03-08T12:01:08;27.10;;;14.38;;
10315;SDS011;5203;48.976;8.306;2024-03-08T12:03:41;22.73;;;12.38;;
10315;SDS011;5203;48.976;8.306;2024-03-08T12:06:10;23.55;;;13.10;;
10315;SDS011;5203;48.976;8.306;2024-03-08T12:08:36;25.80;;;12.00;;
10315;SDS011;5203;48.976;8.306;2024-03-08T12:11:05;24.20;;;12.10;;
10315;SDS011;5203;48.976;8.306;2024-03-08T12:13:32;21.75;;;12.13;;
10315;SDS011;5203;48.976;8.306;2024-03-08T12:15:59;24.85;;;13.65;;
10315;SDS011;5203;48.976;8.306;2024-03-08T12:18:28;31.35;;;13.27;;
10315;SDS011;5203;48.976;8.306;2024-03-08T12:21:10;23.55;;;11.57;;
10315;SDS011;5203;48.976;8.306;2024-03-08T12:23:38;22.70;;;13.23;;
10315;SDS011;5203;48.976;8.306;2024-03-08T12:26:22;23.42;;;12.45;;
10315;SDS011;5203;48.976;8.306;2024-03-08T12:28:49;24.45;;;12.75;;
10315;SDS011;5203;48.976;8.306;2024-03-08T12:31:18;22.10;;;11.38;;
10315;SDS011;5203;48.976;8.306;2024-03-08T12:33:50;23.02;;;12.48;;
10315;SDS011;5203;48.976;8.306;2024-03-08T12:36:18;24.30;;;12.52;;
10315;SDS011;5203;48.976;8.306;2024-03-08T12:38:48;22.35;;;12.75;;
10315;SDS011;5203;48.976;8.306;2024-03-08T12:41:20;23.90;;;13.45;;
10315;SDS011;5203;48.976;8.306;2024-03-08T12:43:46;18.40;;;12.20;;
10315;SDS011;5203;48.976;8.306;2024-03-08T12:46:17;22.58;;;11.70;;
10315;SDS011;5203;48.976;8.306;2024-03-08T12:48:47;22.65;;;12.68;;
10315;SDS011;5203;48.976;8.306;2024-03-08T12:51:13;19.35;;;11.40;;
10315;SDS011;5203;48.976;8.306;2024-03-08T12:53:41;23.38;;;12.65;;
10315;SDS011;5203;48.976;8.306;2024-03-08T12:59:08;23.25;;;11.82;;
10315;SDS011;5203;48.976;8.306;2024-03-08T13:01:35;24.63;;;12.23;;
10315;SDS011;5203;48.976;8.306;2024-03-08T13:04:04;23.45;;;12.63;;
10315;SDS011;5203;48.976;8.306;2024-03-08T13:06:31;23.92;;;11.93;;
10315;SDS011;5203;48.976;8.306;2024-03-08T13:08:57;21.85;;;10.88;;
10315;SDS011;5203;48.976;8.306;2024-03-08T13:11:25;20.73;;;11.85;;
10315;SDS011;5203;48.976;8.306;2024-03-08T13:13:52;22.85;;;12.27;;
10315;SDS011;5203;48.976;8.306;2024-03-08T13:16:18;22.95;;;11.90;;
10315;SDS011;5203;48.976;8.306;2024-03-08T13:18:45;22.65;;;12.73;;
10315;SDS011;5203;48.976;8.306;2024-03-08T13:21:13;22.40;;;13.20;;
10315;SDS011;5203;48.976;8.306;2024-03-08T13:23:40;24.15;;;13.13;;
10315;SDS011;5203;48.976;8.306;2024-03-08T13:26:10;25.17;;;13.18;;
10315;SDS011;5203;48.976;8.306;2024-03-08T13:28:46;24.92;;;12.15;;
10315;SDS011;5203;48.976;8.306;2024-03-08T13:31:22;24.17;;;12.82;;
10315;SDS011;5203;48.976;8.306;2024-03-08T13:33:48;22.40;;;12.13;;
10315;SDS011;5203;48.976;8.306;2024-03-08T13:36:14;23.83;;;13.52;;
10315;SDS011;5203;48.976;8.306;2024-03-08T13:38:44;40.65;;;14.63;;
10315;SDS011;5203;48.976;8.306;2024-03-08T13:41:11;21.23;;;11.85;;
10315;SDS011;5203;48.976;8.306;2024-03-08T13:43:47;22.13;;;12.13;;
10315;SDS011;5203;48.976;8.306;2024-03-08T13:46:16;22.23;;;12.05;;
10315;SDS011;5203;48.976;8.306;2024-03-08T13:48:42;22.55;;;11.18;;
10315;SDS011;5203;48.976;8.306;2024-03-08T13:51:08;22.13;;;12.75;;
10315;SDS011;5203;48.976;8.306;2024-03-08T13:53:40;18.77;;;11.20;;
10315;SDS011;5203;48.976;8.306;2024-03-08T13:56:06;22.15;;;11.75;;
10315;SDS011;5203;48.976;8.306;2024-03-08T13:58:35;34.08;;;13.27;;
10315;SDS011;5203;48.976;8.306;2024-03-08T14:01:01;23.50;;;12.68;;
10315;SDS011;5203;48.976;8.306;2024-03-08T14:03:28;22.70;;;12.75;;
10315;SDS011;5203;48.976;8.306;2024-03-08T14:05:54;21.80;;;12.35;;
10315;SDS011;5203;48.976;8.306;2024-03-08T14:08:26;28.63;;;13.05;;
10315;SDS011;5203;48.976;8.306;2024-03-08T14:10:52;22.13;;;12.60;;
10315;SDS011;5203;48.976;8.306;2024-03-08T14:13:18;21.23;;;11.73;;
10315;SDS011;5203;48.976;8.306;2024-03-08T14:15:44;21.25;;;11.40;;
10315;SDS011;5203;48.976;8.306;2024-03-08T14:18:11;24.42;;;12.60;;
10315;SDS011;5203;48.976;8.306;2024-03-08T14:20:38;19.48;;;12.45;;
10315;SDS011;5203;48.976;8.306;2024-03-08T14:23:04;21.10;;;12.35;;
10315;SDS011;5203;48.976;8.306;2024-03-08T14:25:32;20.98;;;11.57;;
10315;SDS011;5203;48.976;8.306;2024-03-08T14:27:58;24.35;;;13.80;;
10315;SDS011;5203;48.976;8.306;2024-03-08T14:30:28;23.52;;;13.02;;
10315;SDS011;5203;48.976;8.306;2024-03-08T14:33:07;24.95;;;13.40;;
10315;SDS011;5203;48.976;8.306;2024-03-08T14:35:36;18.70;;;11.05;;
10315;SDS011;5203;48.976;8.306;2024-03-08T14:38:02;21.10;;;11.73;;
10315;SDS011;5203;48.976;8.306;2024-03-08T14:40:28;20.15;;;11.00;;
10315;SDS011;5203;48.976;8.306;2024-03-08T14:42:55;23.65;;;12.32;;
10315;SDS011;5203;48.976;8.306;2024-03-08T14:45:22;23.80;;;12.13;;
10315;SDS011;5203;48.976;8.306;2024-03-08T14:47:49;23.75;;;12.68;;
10315;SDS011;5203;48.976;8.306;2024-03-08T14:50:18;23.20;;;12.88;;
10315;SDS011;5203;48.976;8.306;2024-03-08T14:52:47;22.60;;;13.32;;
10315;SDS011;5203;48.976;8.306;2024-03-08T14:55:14;24.20;;;12.40;;
10315;SDS011;5203;48.976;8.306;2024-03-08T14:57:43;23.33;;;11.40;;
10315;SDS011;5203;48.976;8.306;2024-03-08T15:00:12;26.02;;;13.60;;
10315;SDS011;5203;48.976;8.306;2024-03-08T15:02:43;24.95;;;12.75;;
10315;SDS011;5203;48.976;8.306;2024-03-08T15:05:09;22.60;;;12.63;;
10315;SDS011;5203;48.976;8.306;2024-03-08T15:07:39;25.23;;;13.98;;
10315;SDS011;5203;48.976;8.306;2024-03-08T15:10:08;23.40;;;11.90;;
10315;SDS011;5203;48.976;8.306;2024-03-08T15:12:41;24.67;;;11.32;;